Time;durP1;ratioP1;P1;durP2;ratioP2;P2;SDS_P1;SDS_P2;PMS_P1;PMS_P2;Temp;Humidity;BMP_temperature;BMP_pressure;BME280_temperature;BME280_humidity;BME280_pressure;Samples;Min_cycle;Max_cycle;Signal;HPM_P1;HPM_P2
2023/01/26 00:02:08;;;;;;;10.85;6.60;;;17.90;66.30;;;;;;4485615;31;20120;-67
2023/01/26 00:04:34;;;;;;;10.77;6.65;;;17.90;66.30;;;;;;4497233;31;20288;-67
2023/01/26 00:07:00;;;;;;;13.30;6.95;;;17.90;66.30;;;;;;4483635;31;20109;-66
2023/01/26 00:09:25;;;;;;;11.73;6.95;;;17.90;66.30;;;;;;4496342;31;20254;-66
2023/01/26 00:11:51;;;;;;;10.38;6.78;;;17.80;66.20;;;;;;4498397;31;20109;-66
2023/01/26 00:14:17;;;;;;;12.07;6.35;;;17.80;66.30;;;;;;4495955;31;20178;-66
2023/01/26 00:16:43;;;;;;;10.55;6.28;;;17.80;66.30;;;;;;4495028;31;20243;-66
2023/01/26 00:19:09;;;;;;;10.88;5.70;;;17.80;66.30;;;;;;4492472;31;20129;-66
2023/01/26 00:21:34;;;;;;;7.97;5.60;;;17.80;66.30;;;;;;4510523;31;20124;-66
2023/01/26 00:24:00;;;;;;;8.20;6.05;;;17.80;66.30;;;;;;4493953;31;20140;-66
2023/01/26 00:26:27;;;;;;;8.48;6.50;;;17.80;66.30;;;;;;4480818;32;20133;-66
2023/01/26 00:28:53;;;;;;;8.15;5.88;;;17.70;66.30;;;;;;4490675;31;20140;-66
2023/01/26 00:31:26;;;;;;;9.40;6.20;;;17.80;66.30;;;;;;4494810;31;20121;-66
2023/01/26 00:33:56;;;;;;;10.27;6.20;;;17.70;66.20;;;;;;4494846;31;20125;-66
2023/01/26 00:36:22;;;;;;;11.82;5.97;;;17.70;66.20;;;;;;4493793;31;20227;-67
2023/01/26 00:38:48;;;;;;;10.05;6.25;;;17.70;66.20;;;;;;4494309;31;20125;-67
2023/01/26 00:44:00;;;;;;;8.13;5.57;;;17.70;66.20;;;;;;4487759;31;20152;-67
2023/01/26 00:46:26;;;;;;;9.20;5.60;;;17.70;66.30;;;;;;4495007;31;20281;-67
2023/01/26 00:48:52;;;;;;;10.90;5.75;;;17.60;66.20;;;;;;4508840;31;20144;-67
2023/01/26 00:51:18;;;;;;;8.18;5.45;;;17.60;66.20;;;;;;4494338;31;20121;-67
2023/01/26 00:53:44;;;;;;;8.75;5.55;;;17.60;66.20;;;;;;4508207;31;20117;-67
2023/01/26 00:56:10;;;;;;;8.43;5.15;;;17.60;66.20;;;;;;4494221;31;20410;-67
2023/01/26 00:58:35;;;;;;;7.47;5.10;;;17.60;66.30;;;;;;4494388;31;20159;-67
2023/01/26 01:01:01;;;;;;;7.43;4.97;;;17.60;66.30;;;;;;4493260;31;20259;-67
2023/01/26 01:03:27;;;;;;;8.50;5.72;;;17.60;66.30;;;;;;4492726;32;20152;-67
2023/01/26 01:05:53;;;;;;;6.78;4.97;;;17.50;66.30;;;;;;4496476;31;20598;-66
2023/01/26 01:08:18;;;;;;;8.57;5.63;;;17.50;66.30;;;;;;4498019;31;20174;-66
2023/01/26 01:10:44;;;;;;;9.32;5.63;;;17.50;66.30;;;;;;4493040;32;20177;-66
2023/01/26 01:13:10;;;;;;;8.63;5.43;;;17.50;66.40;;;;;;4489459;32;20133;-66
2023/01/26 01:15:37;;;;;;;7.25;5.28;;;17.50;66.30;;;;;;4480969;32;20124;-65
2023/01/26 01:18:03;;;;;;;6.75;5.35;;;17.50;66.40;;;;;;4496009;32;20133;-66
2023/01/26 01:20:29;;;;;;;7.13;4.60;;;17.50;66.40;;;;;;4494314;31;20097;-66
2023/01/26 01:22:55;;;;;;;8.68;5.68;;;17.50;66.40;;;;;;4479924;32;20282;-66
2023/01/26 01:25:21;;;;;;;8.38;5.07;;;17.40;66.40;;;;;;4494360;32;20514;-66
2023/01/26 01:27:46;;;;;;;12.43;5.05;;;17.40;66.40;;;;;;4504821;31;20131;-66
2023/01/26 01:30:12;;;;;;;7.53;4.78;;;17.40;66.40;;;;;;4509774;31;20135;-66
2023/01/26 01:32:39;;;;;;;7.95;4.95;;;17.40;66.40;;;;;;4509522;31;20143;-66
2023/01/26 01:35:06;;;;;;;5.82;4.35;;;17.40;66.40;;;;;;4508821;31;20120;-66
2023/01/26 01:37:32;;;;;;;7.63;5.00;;;17.40;66.40;;;;;;4497876;31;20120;-66
2023/01/26 01:39:58;;;;;;;7.03;4.70;;;17.40;66.40;;;;;;4492248;31;20137;-66
2023/01/26 01:42:25;;;;;;;6.57;4.85;;;17.40;66.40;;;;;;4488713;32;20140;-66
2023/01/26 01:45:25;;;;;;;6.35;4.45;;;17.40;66.40;;;;;;4493753;31;20141;-66
2023/01/26 01:47:54;;;;;;;7.40;4.65;;;17.30;66.40;;;;;;4493158;31;20179;-66
2023/01/26 01:50:20;;;;;;;6.40;4.55;;;17.30;66.40;;;;;;4493063;32;20190;-66
2023/01/26 01:52:46;;;;;;;8.35;4.55;;;17.30;66.40;;;;;;4496333;31;20176;-66
2023/01/26 01:55:14;;;;;;;7.18;4.30;;;17.30;66.40;;;;;;4496548;31;20257;-66
2023/01/26 01:57:51;;;;;;;5.88;4.35;;;17.30;66.40;;;;;;4482347;31;20177;-66
2023/01/26 02:00:19;;;;;;;6.55;4.50;;;17.30;66.40;;;;;;4500074;31;20205;-67
2023/01/26 02:03:36;;;;;;;6.25;4.50;;;17.30;66.30;;;;;;4497033;31;20162;-66
2023/01/26 02:06:18;;;;;;;5.32;3.80;;;17.30;66.30;;;;;;4491148;31;20139;-66
2023/01/26 02:08:50;;;;;;;6.85;4.22;;;17.40;66.30;;;;;;4498452;31;20259;-66
2023/01/26 02:11:23;;;;;;;5.47;3.83;;;17.30;66.20;;;;;;4499995;31;20141;-66
2023/01/26 02:13:50;;;;;;;6.10;4.10;;;17.30;66.10;;;;;;4497971;31;20255;-66
2023/01/26 02:16:17;;;;;;;4.70;3.88;;;17.40;66.10;;;;;;4500400;31;20312;-66
2023/01/26 02:18:44;;;;;;;6.30;4.32;;;17.40;66.00;;;;;;4498973;31;20136;-66
2023/01/26 02:21:15;;;;;;;5.20;4.22;;;17.40;66.00;;;;;;4512355;31;20214;-66
2023/01/26 02:23:53;;;;;;;6.20;4.38;;;17.40;65.90;;;;;;4495671;31;20149;-66
2023/01/26 02:26:21;;;;;;;5.70;3.97;;;17.40;65.90;;;;;;4497348;31;20151;-66
2023/01/26 02:28:47;;;;;;;5.63;3.80;;;17.40;65.80;;;;;;4500243;31;20277;-66
2023/01/26 02:31:14;;;;;;;5.28;3.83;;;17.40;65.70;;;;;;4495935;31;20896;-66
2023/01/26 02:33:41;;;;;;;6.00;3.60;;;17.40;65.70;;;;;;4496387;31;20149;-66
2023/01/26 02:36:17;;;;;;;6.40;4.55;;;17.40;65.70;;;;;;4492675;31;20156;-66
2023/01/26 02:38:54;;;;;;;4.65;3.35;;;17.40;65.60;;;;;;4498889;31;20190;-66
2023/01/26 02:44:09;;;;;;;6.07;3.80;;;17.50;65.40;;;;;;4508901;31;20604;-66
2023/01/26 02:46:34;;;;;;;6.13;4.15;;;17.50;65.40;;;;;;4499771;31;20136;-66
2023/01/26 02:51:45;;;;;;;4.95;3.83;;;17.50;65.40;;;;;;4499491;31;20274;-66
2023/01/26 02:55:21;;;;;;;4.75;3.67;;;17.50;65.30;;;;;;4496036;31;20150;-66
2023/01/26 02:56:56;;;;;;;5.57;3.70;;;17.50;65.30;;;;;;4484008;31;20121;-66
2023/01/26 02:59:22;;;;;;;4.70;3.38;;;17.50;65.20;;;;;;4496059;31;20179;-67
2023/01/26 03:01:53;;;;;;;4.43;3.33;;;17.50;65.20;;;;;;4482172;31;20143;-66
2023/01/26 03:04:18;;;;;;;6.15;3.92;;;17.50;65.20;;;;;;4511798;31;20171;-67
2023/01/26 03:06:44;;;;;;;5.53;4.00;;;17.50;65.20;;;;;;4495003;31;20262;-66
2023/01/26 03:09:10;;;;;;;4.25;3.58;;;17.50;65.20;;;;;;4494964;31;20112;-66
2023/01/26 03:11:42;;;;;;;5.30;3.38;;;17.50;65.20;;;;;;4511053;31;20515;-66
2023/01/26 03:14:12;;;;;;;5.13;3.78;;;17.50;65.10;;;;;;4509659;31;20125;-66
2023/01/26 03:16:38;;;;;;;5.50;4.15;;;17.50;65.10;;;;;;4499574;31;20176;-65
2023/01/26 03:27:27;;;;;;;4.93;3.70;;;17.50;65.10;;;;;;4497400;31;20187;-66
2023/01/26 03:29:55;;;;;;;4.10;3.47;;;17.50;65.10;;;;;;4510999;31;20122;-66
2023/01/26 03:32:21;;;;;;;6.05;3.90;;;17.50;65.10;;;;;;4510273;31;20117;-66
2023/01/26 03:34:47;;;;;;;4.68;3.35;;;17.50;65.10;;;;;;4498772;31;20140;-66
2023/01/26 03:37:13;;;;;;;5.47;3.42;;;17.50;65.10;;;;;;4499081;31;20506;-66
2023/01/26 03:56:23;;;;;;;3.95;3.25;;;17.50;65.00;;;;;;4498429;31;20145;-66
2023/01/26 03:58:51;;;;;;;4.85;3.08;;;17.50;64.90;;;;;;4498861;31;20117;-66
2023/01/26 04:01:26;;;;;;;4.75;3.25;;;17.50;64.90;;;;;;4492659;31;20117;-66
2023/01/26 04:09:27;;;;;;;5.85;3.25;;;17.50;65.00;;;;;;4496734;31;20128;-67
2023/01/26 04:11:53;;;;;;;3.63;2.92;;;17.50;64.90;;;;;;4484186;31;20210;-66
2023/01/26 04:22:46;;;;;;;4.22;3.10;;;17.50;64.80;;;;;;4494598;31;20174;-66
2023/01/26 04:25:15;;;;;;;3.90;2.97;;;17.50;64.70;;;;;;4497417;31;20258;-66
2023/01/26 04:27:42;;;;;;;3.97;2.75;;;17.50;64.80;;;;;;4495982;31;20307;-66
2023/01/26 04:30:10;;;;;;;3.65;3.03;;;17.50;64.80;;;;;;4483494;31;20214;-66
2023/01/26 04:32:36;;;;;;;4.30;3.22;;;17.50;64.80;;;;;;4495556;31;20140;-66
2023/01/26 04:35:05;;;;;;;4.65;3.20;;;17.50;64.80;;;;;;4483990;31;20147;-66
2023/01/26 04:37:31;;;;;;;3.30;2.67;;;17.40;64.80;;;;;;4497160;31;20525;-66
2023/01/26 04:39:58;;;;;;;3.47;2.83;;;17.40;64.80;;;;;;4495525;31;20345;-66
2023/01/26 04:42:24;;;;;;;4.32;3.05;;;17.50;64.70;;;;;;4484093;31;20569;-66
2023/01/26 04:44:53;;;;;;;3.42;2.72;;;17.40;64.80;;;;;;4481576;31;20128;-66
2023/01/26 04:47:19;;;;;;;3.72;2.70;;;17.40;64.70;;;;;;4493080;31;20128;-66
2023/01/26 04:49:45;;;;;;;3.45;2.80;;;17.40;64.70;;;;;;4488430;31;20128;-66
2023/01/26 04:52:12;;;;;;;3.20;2.88;;;17.40;64.80;;;;;;4495967;31;20179;-66
2023/01/26 04:54:39;;;;;;;3.63;2.70;;;17.40;64.70;;;;;;4496935;31;20132;-66
2023/01/26 04:57:06;;;;;;;3.42;2.85;;;17.40;64.70;;;;;;4490061;31;20487;-66
2023/01/26 04:59:33;;;;;;;3.90;2.90;;;17.40;64.70;;;;;;4495561;31;20212;-66
2023/01/26 05:01:58;;;;;;;5.05;2.47;;;17.40;64.80;;;;;;4482496;32;20113;-66
2023/01/26 05:04:24;;;;;;;4.15;2.80;;;17.40;64.70;;;;;;4496834;32;20139;-66
2023/01/26 05:06:50;;;;;;;4.88;2.58;;;17.30;64.70;;;;;;4496282;32;20146;-66
2023/01/26 05:09:16;;;;;;;2.90;2.50;;;17.30;64.80;;;;;;4496721;31;20117;-66
2023/01/26 05:11:42;;;;;;;3.03;2.35;;;17.30;64.80;;;;;;4496763;32;20136;-67
2023/01/26 05:14:08;;;;;;;3.75;2.45;;;17.30;64.80;;;;;;4495348;32;20179;-66
2023/01/26 05:16:34;;;;;;;3.35;2.50;;;17.30;64.80;;;;;;4496178;31;20226;-65
2023/01/26 05:18:59;;;;;;;3.00;2.40;;;17.30;64.80;;;;;;4494635;32;20250;-66
2023/01/26 05:21:26;;;;;;;3.88;3.00;;;17.30;64.80;;;;;;4496900;31;20174;-66
2023/01/26 05:23:53;;;;;;;3.22;2.50;;;17.30;64.90;;;;;;4481994;32;20144;-66
2023/01/26 05:26:19;;;;;;;3.40;2.53;;;17.30;64.90;;;;;;4508069;31;20194;-66
2023/01/26 05:28:45;;;;;;;3.42;2.28;;;17.30;64.90;;;;;;4484327;32;20183;-66
2023/01/26 05:31:11;;;;;;;4.22;2.55;;;17.30;64.90;;;;;;4494110;32;20279;-66
2023/01/26 05:33:37;;;;;;;3.50;2.58;;;17.30;64.90;;;;;;4485023;31;20121;-66
2023/01/26 05:36:06;;;;;;;2.90;2.30;;;17.30;65.00;;;;;;4498391;31;20121;-66
2023/01/26 05:38:33;;;;;;;3.55;2.17;;;17.30;65.00;;;;;;4499668;31;20233;-66
2023/01/26 05:40:59;;;;;;;4.07;2.70;;;17.20;64.90;;;;;;4497039;31;20605;-66
2023/01/26 05:43:25;;;;;;;3.22;2.40;;;17.20;64.90;;;;;;4487266;31;20486;-66
2023/01/26 05:45:51;;;;;;;3.50;2.50;;;17.20;64.90;;;;;;4512271;31;20576;-65
2023/01/26 05:48:17;;;;;;;3.30;2.72;;;17.20;65.00;;;;;;4485597;31;20124;-66
2023/01/26 05:50:42;;;;;;;4.53;2.70;;;17.20;65.00;;;;;;4499793;31;20128;-66
2023/01/26 05:53:08;;;;;;;2.92;2.13;;;17.20;65.00;;;;;;4498177;31;20648;-66
2023/01/26 05:55:34;;;;;;;3.70;2.10;;;17.20;64.90;;;;;;4485909;31;20187;-66
2023/01/26 05:58:00;;;;;;;3.45;2.28;;;17.20;64.90;;;;;;4488488;31;20263;-65
2023/01/26 06:00:26;;;;;;;3.85;2.10;;;17.20;65.00;;;;;;4491654;31;20249;-66
2023/01/26 06:02:52;;;;;;;2.55;2.20;;;17.20;65.90;;;;;;4499256;31;20146;-66
2023/01/26 06:05:18;;;;;;;3.83;2.30;;;17.20;65.00;;;;;;4498232;31;20124;-66
2023/01/26 06:07:47;;;;;;;3.80;2.33;;;17.20;65.00;;;;;;4499348;31;20167;-66
2023/01/26 06:10:13;;;;;;;2.88;2.30;;;17.20;65.00;;;;;;4498487;31;20266;-66
2023/01/26 06:12:41;;;;;;;2.58;2.15;;;17.20;65.00;;;;;;4486327;31;20129;-66
2023/01/26 06:15:08;;;;;;;2.92;2.15;;;17.20;65.00;;;;;;4498155;31;20121;-66
2023/01/26 06:17:34;;;;;;;3.33;2.30;;;17.20;65.00;;;;;;4499803;31;20543;-66
2023/01/26 06:19:59;;;;;;;3.05;2.13;;;17.20;65.00;;;;;;4499111;31;20510;-66
2023/01/26 06:22:26;;;;;;;3.47;2.22;;;17.20;65.00;;;;;;4495178;31;20139;-66
2023/01/26 06:24:51;;;;;;;4.00;1.90;;;17.20;65.00;;;;;;4493511;31;20129;-67
2023/01/26 06:27:18;;;;;;;4.05;2.45;;;17.20;65.00;;;;;;4498583;31;20139;-66
2023/01/26 06:29:44;;;;;;;2.17;1.70;;;17.20;65.00;;;;;;4496512;31;20186;-66
2023/01/26 06:32:12;;;;;;;3.30;2.05;;;17.20;64.90;;;;;;4494404;31;20125;-66
2023/01/26 06:34:38;;;;;;;2.70;1.92;;;17.20;64.90;;;;;;4496179;31;20124;-66
2023/01/26 06:37:05;;;;;;;2.60;1.90;;;17.20;64.90;;;;;;4495114;31;20414;-66
2023/01/26 06:39:31;;;;;;;3.58;2.20;;;17.20;64.90;;;;;;4510683;31;20199;-66
2023/01/26 06:41:56;;;;;;;2.72;1.95;;;17.20;64.90;;;;;;4496470;31;20685;-66
2023/01/26 06:44:22;;;;;;;3.30;2.15;;;17.10;64.90;;;;;;4481431;32;20639;-66
2023/01/26 06:46:48;;;;;;;2.90;2.10;;;17.10;64.90;;;;;;4491960;31;20112;-66
2023/01/26 06:49:15;;;;;;;2.95;2.00;;;17.10;64.90;;;;;;4496561;31;20167;-66
2023/01/26 06:52:04;;;;;;;3.22;2.15;;;17.10;64.90;;;;;;4511440;31;20502;-66
2023/01/26 06:54:30;;;;;;;3.50;2.25;;;17.10;64.80;;;;;;4499805;31;20147;-66
2023/01/26 06:56:56;;;;;;;3.17;2.20;;;17.10;64.90;;;;;;4498205;31;20136;-66
2023/01/26 06:59:21;;;;;;;2.38;1.80;;;17.10;64.90;;;;;;4497008;31;20133;-66
2023/01/26 07:01:48;;;;;;;3.45;2.15;;;17.10;64.90;;;;;;4498108;31;20116;-66
2023/01/26 07:04:15;;;;;;;2.03;1.67;;;17.10;64.90;;;;;;4499571;31;20147;-66
2023/01/26 07:06:42;;;;;;;3.90;2.00;;;17.10;64.80;;;;;;4497929;31;20136;-66
2023/01/26 07:09:09;;;;;;;3.03;1.95;;;17.10;64.90;;;;;;4497663;31;20121;-66
2023/01/26 07:11:35;;;;;;;3.05;2.00;;;17.10;64.80;;;;;;4495704;31;20268;-66
2023/01/26 07:14:00;;;;;;;3.25;1.90;;;17.10;64.80;;;;;;4489078;31;20544;-66
2023/01/26 07:16:27;;;;;;;3.97;1.95;;;17.10;64.80;;;;;;4499502;31;20132;-66
2023/01/26 07:18:55;;;;;;;4.30;2.05;;;17.10;64.80;;;;;;4494267;31;20143;-66
2023/01/26 07:21:21;;;;;;;2.55;1.90;;;17.10;64.80;;;;;;4491923;31;20226;-66
2023/01/26 07:23:48;;;;;;;3.65;1.90;;;17.10;64.80;;;;;;4498570;31;20133;-66
2023/01/26 07:26:14;;;;;;;2.35;1.80;;;17.10;64.80;;;;;;4494856;31;20133;-66
2023/01/26 07:28:40;;;;;;;3.05;1.80;;;17.10;64.80;;;;;;4494922;31;20155;-65
2023/01/26 07:31:06;;;;;;;3.47;1.98;;;17.10;64.80;;;;;;4494053;31;20153;-66
2023/01/26 07:33:33;;;;;;;2.80;2.05;;;17.10;64.80;;;;;;4492515;31;20605;-66
2023/01/26 07:35:59;;;;;;;2.42;1.60;;;17.10;64.80;;;;;;4480940;31;20138;-66
2023/01/26 07:38:28;;;;;;;2.65;1.80;;;17.10;64.80;;;;;;4490507;31;20133;-65
2023/01/26 07:40:54;;;;;;;2.85;1.75;;;17.10;65.00;;;;;;4497148;31;20147;-65
2023/01/26 07:43:20;;;;;;;2.80;1.80;;;17.10;65.10;;;;;;4498186;31;20133;-65
2023/01/26 07:45:50;;;;;;;2.70;1.80;;;17.00;65.20;;;;;;4497663;31;20069;-65
2023/01/26 07:48:17;;;;;;;7.18;1.83;;;17.10;65.50;;;;;;4497524;31;20141;-65
2023/01/26 07:50:44;;;;;;;3.00;1.90;;;17.10;65.70;;;;;;4498937;31;20141;-66
2023/01/26 07:53:11;;;;;;;5.97;1.90;;;17.10;65.60;;;;;;4497334;31;20151;-66
2023/01/26 07:55:37;;;;;;;2.40;1.67;;;17.20;65.40;;;;;;4497178;31;20246;-65
2023/01/26 07:58:03;;;;;;;2.40;1.42;;;17.30;65.10;;;;;;4496952;31;20190;-65
2023/01/26 08:00:29;;;;;;;3.25;1.75;;;17.50;64.80;;;;;;4497012;31;20132;-66
2023/01/26 08:02:55;;;;;;;4.70;1.50;;;17.60;64.40;;;;;;4497608;31;20117;-65
2023/01/26 08:05:21;;;;;;;5.60;1.75;;;17.80;64.10;;;;;;4483084;31;20626;-65
2023/01/26 08:07:47;;;;;;;3.90;1.50;;;17.90;63.70;;;;;;4497536;31;20137;-65
2023/01/26 08:10:13;;;;;;;2.28;1.38;;;18.10;63.30;;;;;;4496810;31;20330;-65
2023/01/26 08:12:39;;;;;;;5.80;1.70;;;18.20;62.90;;;;;;4484577;31;20143;-65
2023/01/26 08:15:05;;;;;;;3.22;1.73;;;18.40;62.60;;;;;;4488702;31;20135;-65
2023/01/26 08:17:34;;;;;;;2.78;1.48;;;18.50;62.10;;;;;;4497885;31;20202;-65
2023/01/26 08:19:59;;;;;;;3.05;1.30;;;18.70;61.80;;;;;;4484623;31;20132;-65
2023/01/26 08:22:25;;;;;;;2.50;1.35;;;18.80;61.40;;;;;;4496938;31;20136;-65
2023/01/26 08:24:51;;;;;;;2.70;1.42;;;19.00;61.20;;;;;;4510698;31;20131;-65
2023/01/26 08:27:17;;;;;;;4.53;1.40;;;19.10;60.80;;;;;;4496886;31;20190;-65
2023/01/26 08:29:43;;;;;;;3.65;1.35;;;19.20;60.50;;;;;;4494734;31;20135;-65
2023/01/26 08:32:09;;;;;;;3.58;1.38;;;19.30;60.20;;;;;;4493552;31;20121;-65
2023/01/26 08:34:35;;;;;;;4.53;1.50;;;19.40;60.20;;;;;;4498011;31;20112;-65
2023/01/26 08:37:02;;;;;;;1.67;1.20;;;19.50;60.20;;;;;;4494482;31;20074;-65
2023/01/26 08:39:29;;;;;;;2.72;1.30;;;19.40;60.00;;;;;;4485638;31;20283;-65
2023/01/26 08:41:55;;;;;;;5.38;1.48;;;19.50;60.00;;;;;;4498362;31;20129;-65
2023/01/26 08:44:21;;;;;;;4.72;1.25;;;19.50;60.00;;;;;;4493547;31;20320;-66
2023/01/26 08:46:47;;;;;;;3.83;1.30;;;19.50;60.00;;;;;;4482058;32;20482;-65
2023/01/26 08:49:13;;;;;;;2.83;1.52;;;19.50;60.00;;;;;;4484355;31;20144;-65
2023/01/26 08:51:39;;;;;;;3.00;1.33;;;19.50;60.00;;;;;;4483342;31;20128;-65
2023/01/26 08:54:07;;;;;;;2.45;1.33;;;19.50;60.00;;;;;;4495399;31;20080;-65
2023/01/26 08:56:33;;;;;;;3.30;1.35;;;19.60;60.10;;;;;;4503366;31;20137;-65
2023/01/26 08:58:59;;;;;;;2.42;1.30;;;19.50;60.00;;;;;;4482799;31;20136;-65
2023/01/26 09:01:25;;;;;;;3.38;1.30;;;19.60;60.10;;;;;;4480955;31;20186;-65
2023/01/26 09:03:52;;;;;;;2.78;1.35;;;19.60;60.10;;;;;;4495694;32;20125;-65
2023/01/26 09:06:18;;;;;;;2.85;1.38;;;19.60;60.10;;;;;;4487246;31;20129;-65
2023/01/26 09:08:44;;;;;;;2.83;1.27;;;19.60;60.10;;;;;;4488308;31;20127;-65
2023/01/26 09:11:11;;;;;;;3.88;1.33;;;19.60;60.10;;;;;;4490870;31;20258;-65
2023/01/26 09:13:38;;;;;;;1.77;1.00;;;19.70;60.10;;;;;;4487014;31;20160;-65
2023/01/26 09:16:05;;;;;;;1.80;0.93;;;19.70;60.10;;;;;;4512964;31;20194;-65
2023/01/26 09:18:32;;;;;;;2.58;1.02;;;19.70;60.10;;;;;;4499033;31;20312;-66
2023/01/26 09:21:06;;;;;;;2.08;1.00;;;19.70;60.10;;;;;;4498506;31;20129;-65
2023/01/26 09:23:33;;;;;;;2.53;1.00;;;19.70;60.10;;;;;;4499754;31;20155;-65
2023/01/26 09:26:00;;;;;;;2.70;1.50;;;19.70;60.10;;;;;;4488786;31;20298;-66
2023/01/26 09:28:26;;;;;;;3.08;1.20;;;19.70;60.10;;;;;;4500541;31;20089;-66
2023/01/26 09:30:52;;;;;;;2.10;1.30;;;19.70;60.20;;;;;;4511235;31;20140;-66
2023/01/26 09:33:20;;;;;;;2.45;1.30;;;19.70;60.10;;;;;;4493233;31;20133;-65
2023/01/26 09:35:47;;;;;;;3.35;1.33;;;19.70;60.10;;;;;;4496155;31;20139;-66
2023/01/26 09:38:13;;;;;;;3.78;1.20;;;19.70;60.90;;;;;;4499765;31;20144;-66
2023/01/26 09:40:42;;;;;;;2.13;1.20;;;19.70;60.00;;;;;;4498675;31;20128;-66
2023/01/26 09:43:46;;;;;;;2.65;1.10;;;19.70;59.90;;;;;;4493705;31;20129;-66
2023/01/26 09:46:18;;;;;;;1.95;1.13;;;19.80;60.00;;;;;;4499620;31;20147;-65
2023/01/26 09:49:08;;;;;;;2.65;1.08;;;19.80;59.90;;;;;;4499169;31;20140;-66
2023/01/26 09:51:42;;;;;;;1.92;1.17;;;19.80;59.90;;;;;;4493907;31;20253;-66
2023/01/26 09:54:15;;;;;;;1.65;1.20;;;19.80;59.90;;;;;;4496204;31;20082;-67
2023/01/26 09:56:42;;;;;;;3.70;1.30;;;19.80;59.90;;;;;;4499234;31;20133;-66
2023/01/26 09:59:31;;;;;;;10.57;1.40;;;19.80;60.00;;;;;;4475599;31;20220;-67
2023/01/26 10:02:33;;;;;;;2.20;1.20;;;19.80;60.10;;;;;;4498669;31;20270;-66
2023/01/26 10:05:06;;;;;;;2.42;0.88;;;19.90;60.40;;;;;;4499095;31;20141;-67
2023/01/26 10:07:32;;;;;;;2.22;0.93;;;19.90;60.40;;;;;;4500559;31;20278;-66
2023/01/26 10:09:58;;;;;;;3.13;1.00;;;19.80;60.40;;;;;;4497337;31;20145;-66
2023/01/26 10:12:27;;;;;;;3.35;1.60;;;19.80;60.50;;;;;;4500541;31;20198;-67
2023/01/26 10:15:10;;;;;;;4.97;1.23;;;19.80;60.50;;;;;;4499118;31;20144;-67
2023/01/26 10:17:40;;;;;;;2.47;1.30;;;19.80;60.40;;;;;;4499522;31;20167;-66
2023/01/26 10:20:18;;;;;;;3.30;1.30;;;19.80;60.50;;;;;;4500090;31;20598;-66
2023/01/26 10:22:51;;;;;;;3.80;1.50;;;19.80;60.50;;;;;;4498938;31;20133;-67
2023/01/26 10:25:21;;;;;;;5.13;1.00;;;19.80;60.40;;;;;;4497304;31;20183;-66
2023/01/26 10:27:47;;;;;;;4.63;1.17;;;19.80;60.40;;;;;;4499354;31;20128;-67
2023/01/26 10:30:15;;;;;;;3.65;0.90;;;19.80;60.40;;;;;;4496052;31;20108;-67
2023/01/26 10:32:42;;;;;;;3.58;1.10;;;19.80;60.40;;;;;;4495553;31;20124;-66
2023/01/26 10:35:19;;;;;;;3.17;1.30;;;19.80;60.40;;;;;;4492300;31;20262;-66
2023/01/26 10:37:45;;;;;;;5.72;1.48;;;19.80;60.50;;;;;;4500149;31;20125;-66
2023/01/26 10:40:12;;;;;;;5.72;1.42;;;19.90;60.70;;;;;;4489705;31;20133;-66
2023/01/26 10:42:39;;;;;;;3.70;1.13;;;19.90;60.70;;;;;;4498008;31;20125;-66
2023/01/26 10:45:31;;;;;;;3.58;1.20;;;19.90;60.80;;;;;;4499114;31;20093;-66
2023/01/26 10:48:20;;;;;;;3.63;1.10;;;19.90;60.80;;;;;;4497848;31;20133;-65
2023/01/26 10:50:47;;;;;;;3.10;1.27;;;19.90;60.80;;;;;;4511611;31;20143;-66
2023/01/26 10:53:30;;;;;;;2.97;1.27;;;19.90;60.80;;;;;;4497711;31;20529;-65
2023/01/26 10:56:12;;;;;;;2.25;1.17;;;19.90;60.90;;;;;;4489739;31;20262;-67
2023/01/26 10:58:47;;;;;;;3.53;1.15;;;19.90;61.00;;;;;;4491366;31;20109;-66
2023/01/26 11:01:17;;;;;;;2.80;1.13;;;19.90;61.00;;;;;;4484377;31;20213;-67
2023/01/26 11:04:11;;;;;;;2.17;1.00;;;19.90;61.00;;;;;;4484635;31;20286;-66
2023/01/26 11:06:37;;;;;;;3.75;1.17;;;19.90;61.20;;;;;;4495963;31;20137;-66
2023/01/26 11:09:23;;;;;;;3.08;1.20;;;19.90;61.30;;;;;;4482552;31;20105;-67
2023/01/26 11:11:56;;;;;;;3.83;1.10;;;19.80;61.40;;;;;;4487413;31;20121;-66
2023/01/26 11:14:22;;;;;;;2.90;1.13;;;19.70;61.60;;;;;;4487728;31;20120;-67
2023/01/26 11:17:06;;;;;;;4.70;1.15;;;19.60;61.80;;;;;;4487038;31;20570;-66
2023/01/26 11:19:45;;;;;;;6.63;1.02;;;19.60;62.00;;;;;;4495726;31;20210;-65
2023/01/26 11:22:32;;;;;;;3.40;1.20;;;19.50;62.20;;;;;;4508477;31;20136;-66
2023/01/26 11:25:17;;;;;;;3.63;1.17;;;19.50;62.30;;;;;;4499088;31;20646;-66
2023/01/26 11:27:55;;;;;;;3.60;0.90;;;19.60;62.20;;;;;;4496952;31;20172;-66
2023/01/26 11:30:32;;;;;;;5.60;1.02;;;19.60;62.10;;;;;;4497835;31;20129;-66
2023/01/26 11:33:12;;;;;;;3.85;1.10;;;19.80;62.00;;;;;;4498915;31;20260;-66
2023/01/26 11:35:50;;;;;;;4.57;1.23;;;19.80;61.90;;;;;;4497424;31;20144;-66
2023/01/26 11:38:41;;;;;;;4.80;1.33;;;19.90;61.60;;;;;;4495404;31;20121;-66
2023/01/26 11:41:10;;;;;;;2.88;1.10;;;19.90;61.40;;;;;;4510339;31;20111;-68
2023/01/26 11:43:46;;;;;;;2.42;0.93;;;20.00;61.40;;;;;;4497198;31;20155;-66
2023/01/26 11:46:30;;;;;;;2.95;1.02;;;20.10;61.40;;;;;;4498779;31;20122;-65
2023/01/26 11:48:59;;;;;;;3.75;1.00;;;20.10;61.40;;;;;;4483148;31;20121;-66
2023/01/26 11:51:55;;;;;;;3.40;1.13;;;20.10;61.40;;;;;;4489610;31;20136;-66
2023/01/26 11:54:43;;;;;;;2.90;1.20;;;20.10;61.40;;;;;;4497980;31;20132;-68
2023/01/26 11:57:20;;;;;;;4.30;1.10;;;20.10;61.40;;;;;;4496184;31;20132;-67
2023/01/26 11:59:55;;;;;;;4.20;1.42;;;20.10;61.60;;;;;;4484204;31;20132;-67
2023/01/26 12:02:34;;;;;;;3.75;1.20;;;20.10;61.60;;;;;;4497809;31;20137;-66
2023/01/26 12:05:33;;;;;;;4.90;1.33;;;20.10;61.70;;;;;;4495876;31;20124;-66
2023/01/26 12:08:04;;;;;;;4.15;1.30;;;20.10;61.70;;;;;;4494062;31;20262;-67
2023/01/26 12:11:21;;;;;;;2.83;1.25;;;20.10;61.70;;;;;;4496760;31;20196;-67
2023/01/26 12:13:55;;;;;;;4.20;0.90;;;20.10;61.80;;;;;;4491193;31;20210;-68
2023/01/26 12:16:50;;;;;;;3.85;0.98;;;20.10;61.90;;;;;;4496823;31;20120;-65
2023/01/26 12:19:43;;;;;;;4.13;1.10;;;20.10;61.90;;;;;;4487401;31;20124;-66
2023/01/26 12:22:24;;;;;;;4.93;1.13;;;20.10;61.90;;;;;;4495425;31;20230;-66
2023/01/26 12:25:22;;;;;;;4.22;1.15;;;20.10;61.90;;;;;;4498323;31;20251;-66
2023/01/26 12:28:29;;;;;;;7.20;1.42;;;20.10;61.90;;;;;;4497328;31;20164;-66
2023/01/26 12:31:56;;;;;;;5.47;1.45;;;20.10;61.90;;;;;;4496629;31;20194;-65
2023/01/26 12:34:31;;;;;;;5.05;0.90;;;20.10;61.70;;;;;;4495832;31;20263;-66
2023/01/26 12:37:30;;;;;;;4.82;1.13;;;20.10;61.60;;;;;;4496204;31;20084;-65
2023/01/26 12:40:08;;;;;;;7.13;1.20;;;20.10;61.60;;;;;;4499145;31;20141;-66
2023/01/26 12:42:40;;;;;;;3.58;0.93;;;20.10;61.50;;;;;;4497357;31;20132;-66
2023/01/26 12:45:13;;;;;;;5.33;1.10;;;20.10;61.40;;;;;;4497262;31;20171;-66
2023/01/26 12:47:59;;;;;;;3.08;0.95;;;20.10;61.50;;;;;;4494272;31;20169;-73
2023/01/26 12:50:44;;;;;;;6.03;1.40;;;20.20;61.50;;;;;;4494852;31;20139;-66
2023/01/26 12:53:48;;;;;;;5.40;1.48;;;20.20;61.40;;;;;;4496553;31;20588;-65
2023/01/26 12:56:19;;;;;;;8.00;1.40;;;20.10;61.10;;;;;;4496974;31;20113;-64
2023/01/26 12:58:46;;;;;;;6.72;1.30;;;20.10;61.10;;;;;;4483635;31;20143;-63
2023/01/26 13:01:17;;;;;;;10.80;1.77;;;20.20;61.10;;;;;;4490357;31;20690;-64
2023/01/26 13:03:51;;;;;;;5.30;1.10;;;20.10;61.10;;;;;;4483368;32;20145;-64
2023/01/26 13:06:20;;;;;;;3.25;1.10;;;20.20;61.10;;;;;;4483126;32;20581;-65
2023/01/26 13:09:03;;;;;;;2.75;0.88;;;20.20;61.10;;;;;;4481955;32;20113;-66
2023/01/26 13:11:50;;;;;;;4.53;1.10;;;20.20;61.00;;;;;;4484892;32;20139;-65
2023/01/26 13:14:34;;;;;;;3.83;1.10;;;20.20;61.10;;;;;;4496388;31;20247;-66
2023/01/26 13:17:22;;;;;;;5.43;1.30;;;20.20;61.10;;;;;;4497548;32;20476;-64
2023/01/26 13:19:53;;;;;;;3.65;1.00;;;20.20;61.10;;;;;;4497551;31;20096;-64
2023/01/26 13:22:22;;;;;;;3.92;1.00;;;20.20;61.10;;;;;;4481279;31;29671;-64
2023/01/26 13:24:49;;;;;;;3.78;0.98;;;20.20;61.00;;;;;;4483010;32;20128;-64
2023/01/26 13:27:57;;;;;;;3.58;0.90;;;20.30;61.10;;;;;;4489920;32;20144;-64
2023/01/26 13:30:23;;;;;;;3.83;0.93;;;20.20;61.00;;;;;;4506249;31;20150;-65
2023/01/26 13:32:49;;;;;;;3.35;0.90;;;20.20;61.00;;;;;;4510726;31;20116;-64
2023/01/26 13:35:21;;;;;;;5.25;1.20;;;20.20;60.90;;;;;;4494992;31;20125;-64
2023/01/26 13:37:58;;;;;;;2.92;1.20;;;20.30;61.00;;;;;;4497399;32;20137;-64
2023/01/26 13:40:43;;;;;;;3.53;1.13;;;20.30;61.00;;;;;;4495828;31;20194;-64
2023/01/26 13:43:30;;;;;;;2.97;1.30;;;20.20;60.90;;;;;;4483843;32;20189;-64
2023/01/26 13:46:21;;;;;;;4.80;1.20;;;20.30;61.10;;;;;;4497187;32;20160;-64
2023/01/26 13:48:55;;;;;;;5.68;1.38;;;20.30;61.10;;;;;;4495710;32;20146;-64
2023/01/26 13:51:25;;;;;;;4.68;1.00;;;20.30;61.10;;;;;;4483241;32;20168;-64
2023/01/26 13:54:13;;;;;;;2.75;1.45;;;20.30;61.20;;;;;;4509257;31;20124;-64